Werte bis 5 Uhr SommerzeitDiagramme Weilburger Grenze: Tagesdaten MonatsdatenCSV-Datei: Giessen21.csv

Wetterdaten 2021 Station: Weilburger Grenze
Temperaturen in °C relative Nieder- Global- Wind Wind Wind- Sonnen-
Datum Boden Boden Luft Luft Luft Luft Feuchte schlag strahlung max richtung schein
20 cm 5 cm 20 cm 2 m 2 m max 2 m min % mm W/m2*d m/s m/s ° h

02.05.2021 11,9 11,8 7,6 8,1 11,9 3,0 63 0,0 2426 1,8 8,7 --- ---
01.05.2021 11,9 12,5 10,8 10,2 15,0 3,7 68 0,0 4290 1,1 6,2 --- ---
30.04.2021 11,8 12,0 8,8 7,9 14,1 1,7 78 0,0 3506 0,9 6,8 --- ---
29.04.2021 11,9 12,9 10,9 10,9 16,7 4,3 77 5,2 4954 2,0 12,8 --- ---
28.04.2021 11,0 11,8 11,4 11,9 20,8 2,3 58 9,8 6537 1,1 9,2 --- ---
27.04.2021 10,6 10,9 9,4 9,4 17,2 0,7 49 0,0 7133 1,0 5,7 --- ---
26.04.2021 10,6 10,6 7,5 7,4 14,7 -0,9 55 0,0 7275 1,3 7,0 --- ---
25.04.2021 10,7 11,0 7,6 7,4 13,3 1,9 60 0,0 7156 1,8 7,1 --- ---
24.04.2021 10,4 11,0 8,6 8,4 15,5 0,1 66 0,0 6645 1,3 7,5 --- ---
23.04.2021 10,2 10,7 8,2 7,8 16,5 -0,3 67 0,0 6994 0,8 6,2 --- ---
22.04.2021 10,2 10,8 8,9 8,5 14,7 2,4 57 0,0 6590 1,7 10,3 --- ---
21.04.2021 10,0 10,8 9,8 10,1 17,8 2,7 79 1,1 3087 1,1 7,5 --- ---
20.04.2021 9,3 10,3 10,5 10,2 19,2 0,3 71 0,0 6471 0,9 5,5 --- ---
19.04.2021 8,7 9,7 8,9 8,9 14,6 2,8 83 0,3 4252 1,2 7,4 --- ---
18.04.2021 8,0 8,5 8,7 8,5 13,7 5,6 83 12,1 2430 0,2 5,7 --- ---
17.04.2021 7,6 7,6 6,4 6,8 11,0 2,3 64 0,0 2607 0,8 7,1 --- ---
16.04.2021 7,4 7,2 5,5 5,4 9,4 1,0 72 0,0 2196 0,8 8,5 --- ---
15.04.2021 7,3 6,8 3,6 3,6 10,4 -3,2 74 0,0 4741 1,0 8,2 --- ---
14.04.2021 7,5 6,8 3,2 3,1 9,3 -3,0 75 0,0 4330 0,8 8,0 --- ---
13.04.2021 7,9 7,2 2,7 2,7 10,7 -3,3 78 0,0 3792 0,5 7,8 --- ---
12.04.2021 8,3 8,2 4,5 4,1 8,1 -0,7 79 0,4 4355 1,1 9,7 --- ---
11.04.2021 8,3 8,7 7,4 7,6 13,5 3,0 94 14,1 1065 1,0 7,7 --- ---
10.04.2021 7,9 8,4 8,0 8,2 9,9 6,4 94 12,4 1051 0,6 4,5 --- ---
09.04.2021 7,0 7,0 6,3 6,4 15,9 -2,4 66 0,0 4920 0,7 8,1 --- ---
08.04.2021 6,9 6,3 3,4 3,5 9,4 -0,7 71 0,1 3304 1,5 8,0 --- ---
07.04.2021 7,2 6,2 1,3 1,5 4,6 -1,6 86 2,0 2003 2,3 10,1 --- ---
06.04.2021 7,6 6,4 1,3 1,3 5,6 -1,4 86 3,3 3609 2,4 12,3 --- ---
05.04.2021 8,6 7,5 2,2 2,6 6,0 -0,1 82 3,3 1809 1,8 13,7 --- ---
04.04.2021 9,1 8,7 5,1 4,7 11,4 -1,3 73 0,0 4132 0,7 10,5 --- ---
03.04.2021 9,6 9,5 7,1 7,1 12,4 1,3 61 0,0 4857 1,6 7,7 --- ---
02.04.2021 9,5 10,5 9,1 8,5 14,0 5,9 64 0,0 3909 2,2 9,5 --- ---
01.04.2021 9,1 10,5 12,9 13,4 24,0 4,9 65 0,0 3198 1,4 9,6 --- ---
31.03.2021 8,6 8,6 11,9 12,9 24,5 2,7 60 0,0 3198 0,0 5,0 --- ---
30.03.2021 8,1 7,9 10,8 11,5 24,7 1,1 61 0,0 3198 0,0 4,1 --- ---
29.03.2021 7,6 7,3 10,9 11,8 21,8 3,8 62 0,0 3198 0,0 7,7 --- ---
28.03.2021 7,2 7,1 7,1 7,6 14,7 0,0 74 0,0 3198 1,0 10,8 --- ---
27.03.2021 7,7 7,8 5,5 6,1 12,2 0,4 78 4,8 2757 1,9 14,1 --- ---
26.03.2021 7,2 8,2 10,2 10,6 16,3 5,4 73 0,0 3683 1,8 8,6 --- ---
25.03.2021 6,5 6,9 7,3 7,8 16,4 -0,6 77 0,0 3589 0,9 5,8 --- ---
24.03.2021 6,1 6,2 5,8 5,8 15,3 -2,7 79 0,0 4914 0,9 5,9 --- ---
23.03.2021 6,1 6,5 5,7 6,0 11,1 -0,3 77 0,0 2105 0,6 5,6 --- ---
22.03.2021 5,7 5,8 5,8 5,9 9,4 3,8 73 0,0 1514 0,9 5,7 --- ---
21.03.2021 5,6 5,7 5,7 6,0 9,6 3,5 68 0,0 2316 1,6 10,6 --- ---
20.03.2021 5,0 4,8 3,9 3,1 7,9 -1,2 57 0,0 4510 0,7 5,4 --- ---
19.03.2021 5,3 4,8 2,2 2,4 6,9 -0,8 82 0,2 2774 1,7 9,9 --- ---
18.03.2021 5,1 4,6 2,6 2,2 8,2 -3,1 82 4,3 3634 0,5 8,0 --- ---
17.03.2021 5,5 5,0 2,0 2,5 5,9 -2,5 82 0,2 1344 0,7 7,3 --- ---
16.03.2021 5,7 5,5 4,7 5,3 10,0 1,6 77 0,0 2472 1,9 7,8 --- ---
15.03.2021 5,5 5,6 4,8 5,1 9,8 1,9 84 2,3 2869 2,0 10,3 --- ---
14.03.2021 5,5 5,3 3,9 4,4 8,1 1,6 86 1,3 1782 1,5 8,3 --- ---
13.03.2021 5,8 5,9 5,9 6,7 10,0 4,1 79 6,9 1241 3,2 15,5 --- ---
12.03.2021 5,5 5,9 7,1 7,4 11,1 4,8 71 1,4 2845 2,7 13,7 --- ---
11.03.2021 4,9 5,6 8,2 9,0 14,2 6,0 78 8,2 1540 3,3 12,7 --- ---
10.03.2021 4,1 4,4 5,9 6,3 9,2 2,4 80 0,0 1723 1,5 10,1 --- ---
09.03.2021 3,5 3,1 2,6 2,8 5,8 -1,1 90 0,0 1252 0,5 6,0 --- ---
08.03.2021 3,4 2,6 1,0 1,1 7,3 -4,0 83 0,0 1631 0,2 4,1 --- ---
07.03.2021 3,6 2,3 1,5 1,1 9,9 -6,2 72 0,0 4298 0,3 5,5 --- ---
06.03.2021 4,3 2,9 0,8 0,6 8,1 -6,1 71 0,0 4136 0,4 5,1 --- ---
05.03.2021 5,1 4,9 2,3 2,8 6,2 -2,4 76 0,1 2183 1,6 8,5 --- ---
04.03.2021 4,6 4,9 5,7 6,1 11,7 1,7 89 4,5 1330 1,0 7,2 --- ---
03.03.2021 4,3 3,9 4,1 4,5 13,4 -2,0 87 0,0 2748 0,6 4,4 --- ---
02.03.2021 4,3 4,0 4,4 4,9 15,4 -0,3 85 0,0 3438 1,2 6,5 --- ---
01.03.2021 4,2 3,9 4,1 4,7 10,7 0,2 89 0,0 2978 1,9 6,6 --- ---
28.02.2021 4,1 4,0 5,5 5,9 11,9 -0,1 77 0,0 3589 1,6 6,1 --- ---
27.02.2021 4,0 3,4 3,3 3,2 9,5 -3,1 88 0,0 3054 1,2 6,3 --- ---
26.02.2021 4,4 4,3 3,3 4,3 9,5 0,1 96 4,4 756 0,7 6,5 --- ---
25.02.2021 4,1 4,4 7,0 8,0 17,6 0,3 84 0,0 3019 0,7 4,9 --- ---
24.02.2021 3,5 4,1 7,3 8,5 17,6 1,2 87 0,0 2775 0,7 5,6 --- ---
23.02.2021 2,5 3,1 7,5 8,2 17,4 2,0 85 0,0 2646 0,9 5,0 --- ---
22.02.2021 1,9 1,6 3,1 4,3 10,8 -1,6 90 0,0 2360 1,1 5,6 --- ---
21.02.2021 1,4 1,3 4,7 6,3 17,3 -1,0 83 0,0 3094 1,2 6,8 --- ---
20.02.2021 1,1 0,4 4,1 5,4 15,6 -1,1 89 0,0 2556 0,9 7,5 --- ---
19.02.2021 1,0 0,1 3,3 4,7 10,5 -0,5 89 1,2 2102 1,0 9,9 --- ---
18.02.2021 1,0 0,0 2,4 3,7 9,6 -1,0 90 0,1 1484 0,8 8,0 --- ---
17.02.2021 1,0 0,0 3,2 4,8 10,6 0,9 93 3,0 1270 0,5 7,5 --- ---
16.02.2021 1,1 0,0 1,8 2,8 8,4 0,4 93 0,0 1668 0,6 5,8 --- ---
15.02.2021 1,2 -0,1 -3,3 -2,7 0,7 -8,2 80 1,9 731 1,7 8,4 --- ---
14.02.2021 1,3 0,0 -6,3 -6,6 3,2 -13,0 78 0,0 3128 0,2 4,3 --- ---
13.02.2021 1,5 0,2 -6,8 -6,6 -1,0 -11,0 78 0,0 2950 1,0 5,8 --- ---
12.02.2021 1,6 0,3 -6,2 -6,5 -1,6 -9,5 80 0,0 2635 1,6 7,9 --- ---
11.02.2021 1,8 0,4 -4,3 -4,2 0,3 -8,4 79 0,0 2044 0,4 5,0 --- ---
10.02.2021 2,1 0,5 -9,4 -9,5 -3,5 -13,9 84 0,0 2455 1,5 8,2 --- ---
09.02.2021 2,5 0,8 -8,6 -8,9 -5,9 -12,7 81 0,0 1774 0,7 5,2 --- ---
08.02.2021 3,1 1,3 -6,3 -6,4 -5,3 -8,0 86 0,1 817 2,7 7,3 --- ---
07.02.2021 4,2 2,7 -2,2 -2,1 0,7 -5,4 94 4,8 173 2,9 8,2 --- ---
06.02.2021 4,8 4,6 3,1 3,6 6,1 0,6 97 9,8 210 2,2 8,1 --- ---
05.02.2021 4,8 4,3 3,7 4,3 6,2 2,1 98 12,6 266 0,6 3,4 --- ---
04.02.2021 4,9 5,2 6,0 6,9 11,2 2,2 85 1,6 1558 1,4 8,2 --- ---
03.02.2021 4,2 4,4 6,5 7,9 11,4 4,2 97 8,2 419 1,0 6,9 --- ---
02.02.2021 3,5 3,5 4,5 5,3 7,6 3,4 99 6,8 332 0,9 5,6 --- ---
01.02.2021 3,3 2,5 1,6 1,9 3,5 0,4 99 6,3 331 0,0 3,5 --- ---
31.01.2021 3,7 2,4 -0,3 -0,1 1,9 -2,6 84 0,3 1041 1,4 6,2 --- ---
30.01.2021 4,3 4,2 2,8 3,3 8,3 0,5 87 1,8 562 2,1 8,9 --- ---
29.01.2021 3,6 3,9 5,6 6,3 10,9 3,1 94 23,7 648 1,4 12,2 --- ---
28.01.2021 3,0 2,7 3,2 3,6 5,6 2,2 99 16,2 335 1,4 5,6 --- ---
27.01.2021 2,9 1,8 0,1 0,8 2,8 -1,4 97 0,5 440 1,3 7,7 --- ---
26.01.2021 3,1 2,2 1,1 1,8 3,9 -0,5 93 1,0 670 1,2 7,2 --- ---
25.01.2021 3,4 2,4 -0,3 0,0 2,1 -1,3 96 0,6 507 0,1 2,6 --- ---
24.01.2021 3,9 3,1 0,9 1,4 3,6 -0,3 95 6,9 814 1,5 8,0 --- ---
23.01.2021 4,1 3,6 2,4 2,8 5,0 0,5 96 0,1 558 1,5 6,0 --- ---
22.01.2021 4,1 4,5 5,0 5,7 10,7 1,5 90 3,7 458 2,3 15,9 --- ---
21.01.2021 3,3 3,4 6,7 7,9 11,3 5,3 75 1,4 559 3,7 13,8 --- ---
20.01.2021 2,9 2,4 2,8 4,1 8,8 -0,7 83 0,0 829 1,3 7,4 --- ---
19.01.2021 2,8 2,4 3,2 4,0 5,7 1,9 89 3,2 220 3,2 10,1 --- ---
18.01.2021 2,3 1,8 2,0 2,9 4,6 0,7 93 0,3 560 0,9 6,0 --- ---
17.01.2021 2,2 1,1 -0,8 -0,8 0,7 -2,3 96 1,3 475 0,7 3,9 --- ---
16.01.2021 2,2 1,1 -0,8 -0,4 0,8 -1,5 72 0,0 440 1,1 5,7 --- ---
15.01.2021 2,5 1,1 -0,4 0,5 1,7 -2,6 82 0,0 323 0,5 6,5 --- ---
14.01.2021 2,7 1,7 0,6 1,3 3,9 -1,0 78 0,0 792 0,5 8,0 --- ---
13.01.2021 2,7 1,5 0,7 1,7 4,8 -0,7 89 0,6 712 1,1 8,4 --- ---
12.01.2021 2,7 1,9 1,9 2,7 4,7 0,1 93 2,2 453 2,6 9,4 --- ---
11.01.2021 2,9 1,2 -1,5 -1,3 2,8 -4,9 90 0,0 880 1,4 8,0 --- ---
10.01.2021 3,3 2,2 -0,3 0,0 2,6 -2,9 93 0,0 702 0,1 2,3 --- ---
09.01.2021 3,5 2,5 0,5 0,8 2,9 -0,4 90 0,0 457 0,1 2,9 --- ---
08.01.2021 3,6 2,7 0,9 1,4 2,9 0,2 96 2,4 619 0,5 4,0 --- ---
07.01.2021 3,7 2,8 1,0 1,4 2,5 0,8 90 0,6 346 0,7 4,8 --- ---
06.01.2021 3,7 2,9 2,0 2,6 3,9 1,0 91 0,4 338 0,5 5,3 --- ---
05.01.2021 3,7 2,8 1,4 1,9 2,5 1,0 93 1,9 163 2,1 7,5 --- ---
04.01.2021 3,8 2,8 1,0 1,5 2,0 0,9 94 0,1 98 1,2 6,3 --- ---
03.01.2021 4,0 2,9 1,6 2,2 3,1 1,1 85 0,0 230 1,6 8,5 --- ---
02.01.2021 4,1 3,1 0,9 1,1 2,8 -0,6 98 0,0 440 0,1 3,0 --- ---
01.01.2021 4,3 3,3 1,3 1,6 3,0 0,5 99 3,3 285 0,0 2,8 --- ---

Mittelwerte (Temperaturen, Strahlung, rel. Feuchte, Wind), Summe (Regen) für 2021
5,3 4,9 3,8 4,2 81 232 2.346 1,2

Landesbetrieb Landwirtschaft Hessen 2009

      Werte bis 5 Uhr SommerzeitCSV-Datei: Giessen21.csvDiagramm: Giessen